sensor_id;sensor_type;location;lat;lon;timestamp;P1;durP1;ratioP1;P2;durP2;ratioP2
20486;SDS011;10402;49.012;8.370;2023-07-20T00:01:02;982.00;;;917.23;;
20486;SDS011;10402;49.012;8.370;2023-07-20T00:03:27;973.80;;;909.50;;
20486;SDS011;10402;49.012;8.370;2023-07-20T00:05:53;987.90;;;922.77;;
20486;SDS011;10402;49.012;8.370;2023-07-20T00:08:18;939.00;;;878.50;;
20486;SDS011;10402;49.012;8.370;2023-07-20T00:10:44;979.23;;;914.77;;
20486;SDS011;10402;49.012;8.370;2023-07-20T00:13:10;903.77;;;846.27;;
20486;SDS011;10402;49.012;8.370;2023-07-20T00:15:36;957.47;;;894.97;;
20486;SDS011;10402;49.012;8.370;2023-07-20T00:18:03;940.43;;;879.97;;
20486;SDS011;10402;49.012;8.370;2023-07-20T00:20:31;987.47;;;922.87;;
20486;SDS011;10402;49.012;8.370;2023-07-20T00:22:57;993.07;;;928.30;;
20486;SDS011;10402;49.012;8.370;2023-07-20T00:25:23;951.87;;;891.07;;
20486;SDS011;10402;49.012;8.370;2023-07-20T00:27:49;958.57;;;896.87;;
20486;SDS011;10402;49.012;8.370;2023-07-20T00:30:15;961.23;;;899.00;;
20486;SDS011;10402;49.012;8.370;2023-07-20T00:32:41;973.30;;;909.93;;
20486;SDS011;10402;49.012;8.370;2023-07-20T00:35:08;965.10;;;902.37;;
20486;SDS011;10402;49.012;8.370;2023-07-20T00:37:34;955.23;;;893.87;;
20486;SDS011;10402;49.012;8.370;2023-07-20T00:40:00;984.80;;;921.03;;
20486;SDS011;10402;49.012;8.370;2023-07-20T00:42:25;999.43;;;934.40;;
20486;SDS011;10402;49.012;8.370;2023-07-20T00:44:51;958.70;;;896.73;;
20486;SDS011;10402;49.012;8.370;2023-07-20T00:47:16;955.40;;;893.13;;
20486;SDS011;10402;49.012;8.370;2023-07-20T00:49:42;993.57;;;928.07;;
20486;SDS011;10402;49.012;8.370;2023-07-20T00:52:08;975.17;;;911.47;;
20486;SDS011;10402;49.012;8.370;2023-07-20T00:54:38;986.20;;;921.13;;
20486;SDS011;10402;49.012;8.370;2023-07-20T00:57:04;973.87;;;909.90;;
20486;SDS011;10402;49.012;8.370;2023-07-20T00:59:32;970.93;;;907.10;;
20486;SDS011;10402;49.012;8.370;2023-07-20T01:01:57;972.77;;;908.73;;
20486;SDS011;10402;49.012;8.370;2023-07-20T01:04:23;961.07;;;898.03;;
20486;SDS011;10402;49.012;8.370;2023-07-20T01:14:32;993.97;;;928.93;;
20486;SDS011;10402;49.012;8.370;2023-07-20T01:16:59;881.30;;;826.27;;
20486;SDS011;10402;49.012;8.370;2023-07-20T01:19:25;946.97;;;885.60;;
20486;SDS011;10402;49.012;8.370;2023-07-20T01:21:53;926.03;;;867.30;;
20486;SDS011;10402;49.012;8.370;2023-07-20T01:24:31;974.17;;;910.37;;
20486;SDS011;10402;49.012;8.370;2023-07-20T01:32:37;648.83;;;615.67;;
20486;SDS011;10402;49.012;8.370;2023-07-20T01:35:06;899.57;;;841.53;;
20486;SDS011;10402;49.012;8.370;2023-07-20T01:37:33;979.47;;;914.67;;
20486;SDS011;10402;49.012;8.370;2023-07-20T01:39:59;818.13;;;768.97;;
20486;SDS011;10402;49.012;8.370;2023-07-20T01:42:26;964.60;;;901.37;;
20486;SDS011;10402;49.012;8.370;2023-07-20T01:44:52;904.50;;;846.57;;
20486;SDS011;10402;49.012;8.370;2023-07-20T01:47:18;884.57;;;828.57;;
20486;SDS011;10402;49.012;8.370;2023-07-20T01:49:44;848.70;;;795.70;;
20486;SDS011;10402;49.012;8.370;2023-07-20T01:52:09;829.87;;;778.50;;
20486;SDS011;10402;49.012;8.370;2023-07-20T01:54:35;909.30;;;850.83;;
20486;SDS011;10402;49.012;8.370;2023-07-20T01:57:01;873.33;;;817.93;;
20486;SDS011;10402;49.012;8.370;2023-07-20T01:59:26;966.97;;;903.40;;
20486;SDS011;10402;49.012;8.370;2023-07-20T02:01:52;956.93;;;894.90;;
20486;SDS011;10402;49.012;8.370;2023-07-20T02:04:17;904.67;;;847.67;;
20486;SDS011;10402;49.012;8.370;2023-07-20T02:06:43;936.50;;;875.97;;
20486;SDS011;10402;49.012;8.370;2023-07-20T02:09:09;918.00;;;858.80;;
20486;SDS011;10402;49.012;8.370;2023-07-20T02:11:34;812.77;;;764.07;;
20486;SDS011;10402;49.012;8.370;2023-07-20T02:14:00;737.83;;;695.63;;
20486;SDS011;10402;49.012;8.370;2023-07-20T02:16:25;746.30;;;704.87;;
20486;SDS011;10402;49.012;8.370;2023-07-20T02:18:52;702.77;;;665.57;;
20486;SDS011;10402;49.012;8.370;2023-07-20T02:21:17;703.53;;;666.33;;
20486;SDS011;10402;49.012;8.370;2023-07-20T02:23:43;694.60;;;658.73;;
20486;SDS011;10402;49.012;8.370;2023-07-20T02:26:08;667.63;;;633.47;;
20486;SDS011;10402;49.012;8.370;2023-07-20T02:28:34;692.83;;;657.13;;
20486;SDS011;10402;49.012;8.370;2023-07-20T02:30:59;726.23;;;688.97;;
20486;SDS011;10402;49.012;8.370;2023-07-20T02:33:25;708.00;;;672.40;;
20486;SDS011;10402;49.012;8.370;2023-07-20T02:35:51;713.73;;;677.37;;
20486;SDS011;10402;49.012;8.370;2023-07-20T02:38:17;709.83;;;674.00;;
20486;SDS011;10402;49.012;8.370;2023-07-20T02:40:43;685.77;;;650.80;;
20486;SDS011;10402;49.012;8.370;2023-07-20T02:43:08;730.10;;;692.47;;
20486;SDS011;10402;49.012;8.370;2023-07-20T02:45:34;686.40;;;650.40;;
20486;SDS011;10402;49.012;8.370;2023-07-20T02:48:00;750.73;;;709.77;;
20486;SDS011;10402;49.012;8.370;2023-07-20T02:50:26;705.23;;;668.13;;
20486;SDS011;10402;49.012;8.370;2023-07-20T02:52:51;711.97;;;673.23;;
20486;SDS011;10402;49.012;8.370;2023-07-20T02:55:17;679.47;;;642.43;;
20486;SDS011;10402;49.012;8.370;2023-07-20T02:57:42;708.77;;;670.67;;
20486;SDS011;10402;49.012;8.370;2023-07-20T03:00:08;662.20;;;628.00;;
20486;SDS011;10402;49.012;8.370;2023-07-20T03:02:34;686.40;;;650.07;;
20486;SDS011;10402;49.012;8.370;2023-07-20T03:04:59;720.43;;;681.40;;
20486;SDS011;10402;49.012;8.370;2023-07-20T03:07:26;730.00;;;690.17;;
20486;SDS011;10402;49.012;8.370;2023-07-20T03:09:53;706.80;;;668.67;;
20486;SDS011;10402;49.012;8.370;2023-07-20T03:12:19;705.90;;;666.90;;
20486;SDS011;10402;49.012;8.370;2023-07-20T03:14:45;689.83;;;652.53;;
20486;SDS011;10402;49.012;8.370;2023-07-20T03:17:11;736.70;;;696.07;;
20486;SDS011;10402;49.012;8.370;2023-07-20T03:19:36;659.60;;;625.33;;
20486;SDS011;10402;49.012;8.370;2023-07-20T03:22:02;678.50;;;642.50;;
20486;SDS011;10402;49.012;8.370;2023-07-20T03:24:28;678.03;;;642.00;;
20486;SDS011;10402;49.012;8.370;2023-07-20T03:26:53;650.37;;;616.90;;
20486;SDS011;10402;49.012;8.370;2023-07-20T03:29:19;661.43;;;627.00;;
20486;SDS011;10402;49.012;8.370;2023-07-20T03:31:44;674.67;;;639.93;;
20486;SDS011;10402;49.012;8.370;2023-07-20T03:34:10;676.90;;;641.87;;
20486;SDS011;10402;49.012;8.370;2023-07-20T03:36:35;682.33;;;646.83;;
20486;SDS011;10402;49.012;8.370;2023-07-20T03:39:01;666.47;;;631.80;;
20486;SDS011;10402;49.012;8.370;2023-07-20T03:41:28;661.10;;;626.83;;
20486;SDS011;10402;49.012;8.370;2023-07-20T03:43:53;727.17;;;686.93;;
20486;SDS011;10402;49.012;8.370;2023-07-20T03:46:19;719.93;;;681.20;;
20486;SDS011;10402;49.012;8.370;2023-07-20T03:48:44;662.77;;;627.90;;
20486;SDS011;10402;49.012;8.370;2023-07-20T03:51:10;736.23;;;695.53;;
20486;SDS011;10402;49.012;8.370;2023-07-20T03:53:36;728.13;;;689.10;;
20486;SDS011;10402;49.012;8.370;2023-07-20T03:56:01;711.60;;;674.23;;
20486;SDS011;10402;49.012;8.370;2023-07-20T03:58:27;696.60;;;660.23;;
20486;SDS011;10402;49.012;8.370;2023-07-20T04:00:53;701.63;;;663.10;;
20486;SDS011;10402;49.012;8.370;2023-07-20T04:03:19;666.07;;;630.17;;
20486;SDS011;10402;49.012;8.370;2023-07-20T04:05:45;674.00;;;637.17;;
20486;SDS011;10402;49.012;8.370;2023-07-20T04:08:11;686.93;;;649.80;;
20486;SDS011;10402;49.012;8.370;2023-07-20T04:10:36;614.80;;;583.50;;
20486;SDS011;10402;49.012;8.370;2023-07-20T04:13:03;633.63;;;601.07;;
20486;SDS011;10402;49.012;8.370;2023-07-20T04:15:29;627.77;;;596.63;;
20486;SDS011;10402;49.012;8.370;2023-07-20T04:17:55;622.03;;;591.10;;
20486;SDS011;10402;49.012;8.370;2023-07-20T04:20:21;630.17;;;598.90;;
20486;SDS011;10402;49.012;8.370;2023-07-20T04:22:50;659.57;;;626.07;;
20486;SDS011;10402;49.012;8.370;2023-07-20T04:25:17;651.30;;;618.13;;
20486;SDS011;10402;49.012;8.370;2023-07-20T04:27:43;668.77;;;634.47;;
20486;SDS011;10402;49.012;8.370;2023-07-20T04:30:09;670.10;;;635.60;;
20486;SDS011;10402;49.012;8.370;2023-07-20T04:32:37;667.20;;;632.73;;
20486;SDS011;10402;49.012;8.370;2023-07-20T04:35:06;678.73;;;643.87;;
20486;SDS011;10402;49.012;8.370;2023-07-20T04:37:33;645.67;;;613.00;;
20486;SDS011;10402;49.012;8.370;2023-07-20T04:39:58;637.10;;;604.93;;
20486;SDS011;10402;49.012;8.370;2023-07-20T04:42:24;644.87;;;612.50;;
20486;SDS011;10402;49.012;8.370;2023-07-20T04:44:49;659.83;;;625.87;;
20486;SDS011;10402;49.012;8.370;2023-07-20T04:47:15;634.43;;;602.43;;
20486;SDS011;10402;49.012;8.370;2023-07-20T04:49:40;642.53;;;609.83;;
20486;SDS011;10402;49.012;8.370;2023-07-20T04:52:07;666.67;;;632.23;;
20486;SDS011;10402;49.012;8.370;2023-07-20T04:54:32;670.93;;;635.33;;
20486;SDS011;10402;49.012;8.370;2023-07-20T04:56:58;653.17;;;619.27;;
20486;SDS011;10402;49.012;8.370;2023-07-20T04:59:23;699.53;;;661.80;;
20486;SDS011;10402;49.012;8.370;2023-07-20T05:01:49;679.10;;;642.77;;
20486;SDS011;10402;49.012;8.370;2023-07-20T05:04:15;655.63;;;620.87;;
20486;SDS011;10402;49.012;8.370;2023-07-20T05:06:40;644.10;;;609.60;;
20486;SDS011;10402;49.012;8.370;2023-07-20T05:09:06;686.57;;;649.97;;
20486;SDS011;10402;49.012;8.370;2023-07-20T05:11:32;666.67;;;630.47;;
20486;SDS011;10402;49.012;8.370;2023-07-20T05:13:58;691.30;;;653.03;;
20486;SDS011;10402;49.012;8.370;2023-07-20T05:16:24;740.67;;;698.07;;
20486;SDS011;10402;49.012;8.370;2023-07-20T05:18:50;754.93;;;711.77;;
20486;SDS011;10402;49.012;8.370;2023-07-20T05:21:16;727.63;;;686.17;;
20486;SDS011;10402;49.012;8.370;2023-07-20T05:23:41;700.23;;;661.83;;
20486;SDS011;10402;49.012;8.370;2023-07-20T05:26:07;706.07;;;667.07;;
20486;SDS011;10402;49.012;8.370;2023-07-20T05:28:33;709.00;;;669.93;;
20486;SDS011;10402;49.012;8.370;2023-07-20T05:30:58;736.47;;;694.17;;
20486;SDS011;10402;49.012;8.370;2023-07-20T05:33:24;723.40;;;682.93;;
20486;SDS011;10402;49.012;8.370;2023-07-20T05:35:50;755.73;;;713.20;;
20486;SDS011;10402;49.012;8.370;2023-07-20T05:38:15;770.33;;;725.70;;
20486;SDS011;10402;49.012;8.370;2023-07-20T05:40:41;744.63;;;701.00;;
20486;SDS011;10402;49.012;8.370;2023-07-20T05:43:10;766.67;;;722.17;;
20486;SDS011;10402;49.012;8.370;2023-07-20T05:45:36;748.03;;;703.87;;
20486;SDS011;10402;49.012;8.370;2023-07-20T05:48:02;775.27;;;729.40;;
20486;SDS011;10402;49.012;8.370;2023-07-20T05:50:28;768.87;;;723.13;;
20486;SDS011;10402;49.012;8.370;2023-07-20T05:52:53;779.93;;;733.17;;
20486;SDS011;10402;49.012;8.370;2023-07-20T05:55:19;745.50;;;701.17;;
20486;SDS011;10402;49.012;8.370;2023-07-20T05:57:45;694.93;;;654.27;;
20486;SDS011;10402;49.012;8.370;2023-07-20T06:00:13;743.77;;;699.77;;
20486;SDS011;10402;49.012;8.370;2023-07-20T06:02:39;660.43;;;622.10;;
20486;SDS011;10402;49.012;8.370;2023-07-20T06:05:05;741.10;;;697.47;;
20486;SDS011;10402;49.012;8.370;2023-07-20T06:07:34;699.33;;;657.87;;
20486;SDS011;10402;49.012;8.370;2023-07-20T06:10:01;739.27;;;695.93;;
20486;SDS011;10402;49.012;8.370;2023-07-20T06:12:27;863.00;;;811.63;;
20486;SDS011;10402;49.012;8.370;2023-07-20T06:14:53;716.37;;;675.27;;
20486;SDS011;10402;49.012;8.370;2023-07-20T06:17:18;758.50;;;714.17;;
20486;SDS011;10402;49.012;8.370;2023-07-20T06:19:44;696.70;;;656.23;;
20486;SDS011;10402;49.012;8.370;2023-07-20T06:22:09;710.67;;;669.93;;
20486;SDS011;10402;49.012;8.370;2023-07-20T06:24:35;648.33;;;611.07;;
20486;SDS011;10402;49.012;8.370;2023-07-20T06:27:00;681.57;;;642.10;;
20486;SDS011;10402;49.012;8.370;2023-07-20T06:29:26;729.87;;;686.93;;
20486;SDS011;10402;49.012;8.370;2023-07-20T06:31:51;774.60;;;729.20;;
20486;SDS011;10402;49.012;8.370;2023-07-20T06:34:17;773.13;;;726.20;;
20486;SDS011;10402;49.012;8.370;2023-07-20T06:36:42;752.53;;;706.73;;
20486;SDS011;10402;49.012;8.370;2023-07-20T06:39:08;783.57;;;735.83;;
20486;SDS011;10402;49.012;8.370;2023-07-20T06:41:34;748.33;;;703.80;;
20486;SDS011;10402;49.012;8.370;2023-07-20T06:43:59;750.13;;;706.13;;
20486;SDS011;10402;49.012;8.370;2023-07-20T06:46:25;753.47;;;708.83;;
20486;SDS011;10402;49.012;8.370;2023-07-20T06:48:51;778.20;;;731.13;;
20486;SDS011;10402;49.012;8.370;2023-07-20T06:51:17;812.23;;;762.47;;
20486;SDS011;10402;49.012;8.370;2023-07-20T06:53:42;790.10;;;741.53;;
20486;SDS011;10402;49.012;8.370;2023-07-20T06:56:08;754.10;;;708.80;;
20486;SDS011;10402;49.012;8.370;2023-07-20T06:58:34;734.73;;;690.50;;
20486;SDS011;10402;49.012;8.370;2023-07-20T07:01:04;809.20;;;760.03;;
20486;SDS011;10402;49.012;8.370;2023-07-20T07:03:32;790.60;;;743.97;;
20486;SDS011;10402;49.012;8.370;2023-07-20T07:05:58;762.93;;;717.53;;
20486;SDS011;10402;49.012;8.370;2023-07-20T07:08:25;784.87;;;738.27;;
20486;SDS011;10402;49.012;8.370;2023-07-20T07:10:50;781.50;;;734.77;;
20486;SDS011;10402;49.012;8.370;2023-07-20T07:13:17;834.23;;;785.30;;
20486;SDS011;10402;49.012;8.370;2023-07-20T07:15:42;769.07;;;723.17;;
20486;SDS011;10402;49.012;8.370;2023-07-20T07:18:08;794.17;;;747.13;;
20486;SDS011;10402;49.012;8.370;2023-07-20T07:20:33;805.83;;;757.67;;
20486;SDS011;10402;49.012;8.370;2023-07-20T07:22:59;813.67;;;764.47;;
20486;SDS011;10402;49.012;8.370;2023-07-20T07:25:25;828.47;;;778.23;;
20486;SDS011;10402;49.012;8.370;2023-07-20T07:27:52;801.73;;;753.50;;
20486;SDS011;10402;49.012;8.370;2023-07-20T07:30:19;796.53;;;747.20;;
20486;SDS011;10402;49.012;8.370;2023-07-20T07:32:45;792.63;;;744.93;;
20486;SDS011;10402;49.012;8.370;2023-07-20T07:35:10;790.93;;;742.43;;
20486;SDS011;10402;49.012;8.370;2023-07-20T07:37:36;811.77;;;761.30;;
20486;SDS011;10402;49.012;8.370;2023-07-20T07:40:02;783.50;;;735.40;;
20486;SDS011;10402;49.012;8.370;2023-07-20T07:42:29;795.37;;;746.43;;
20486;SDS011;10402;49.012;8.370;2023-07-20T07:44:54;829.30;;;777.40;;
20486;SDS011;10402;49.012;8.370;2023-07-20T07:47:20;815.53;;;765.93;;
20486;SDS011;10402;49.012;8.370;2023-07-20T07:49:45;807.60;;;758.33;;
20486;SDS011;10402;49.012;8.370;2023-07-20T07:52:11;809.80;;;759.80;;
20486;SDS011;10402;49.012;8.370;2023-07-20T07:54:36;819.90;;;769.30;;
20486;SDS011;10402;49.012;8.370;2023-07-20T07:57:02;789.23;;;741.10;;
20486;SDS011;10402;49.012;8.370;2023-07-20T07:59:28;803.80;;;754.73;;
20486;SDS011;10402;49.012;8.370;2023-07-20T08:01:53;801.30;;;752.93;;
20486;SDS011;10402;49.012;8.370;2023-07-20T08:04:19;822.47;;;772.40;;
20486;SDS011;10402;49.012;8.370;2023-07-20T08:06:44;824.27;;;773.70;;
20486;SDS011;10402;49.012;8.370;2023-07-20T08:09:10;834.57;;;783.43;;
20486;SDS011;10402;49.012;8.370;2023-07-20T08:11:36;809.40;;;760.73;;
20486;SDS011;10402;49.012;8.370;2023-07-20T08:14:03;838.40;;;787.37;;
20486;SDS011;10402;49.012;8.370;2023-07-20T08:16:29;865.83;;;811.87;;
20486;SDS011;10402;49.012;8.370;2023-07-20T08:18:54;770.13;;;725.23;;
20486;SDS011;10402;49.012;8.370;2023-07-20T08:21:20;762.13;;;717.57;;
20486;SDS011;10402;49.012;8.370;2023-07-20T08:23:45;768.70;;;724.93;;
20486;SDS011;10402;49.012;8.370;2023-07-20T08:26:11;764.30;;;720.53;;
20486;SDS011;10402;49.012;8.370;2023-07-20T08:28:36;761.40;;;718.00;;
20486;SDS011;10402;49.012;8.370;2023-07-20T08:31:02;750.93;;;709.53;;
20486;SDS011;10402;49.012;8.370;2023-07-20T08:33:30;743.67;;;702.77;;
20486;SDS011;10402;49.012;8.370;2023-07-20T08:35:58;778.37;;;733.53;;
20486;SDS011;10402;49.012;8.370;2023-07-20T08:38:24;736.90;;;695.70;;
20486;SDS011;10402;49.012;8.370;2023-07-20T08:40:49;748.53;;;706.60;;
20486;SDS011;10402;49.012;8.370;2023-07-20T08:43:18;726.90;;;686.13;;
20486;SDS011;10402;49.012;8.370;2023-07-20T08:45:45;734.27;;;693.90;;
20486;SDS011;10402;49.012;8.370;2023-07-20T08:48:11;747.20;;;705.43;;
20486;SDS011;10402;49.012;8.370;2023-07-20T08:50:37;753.47;;;712.10;;
20486;SDS011;10402;49.012;8.370;2023-07-20T08:53:04;760.33;;;717.90;;
20486;SDS011;10402;49.012;8.370;2023-07-20T08:55:30;746.70;;;705.23;;
20486;SDS011;10402;49.012;8.370;2023-07-20T08:57:57;753.67;;;712.43;;
20486;SDS011;10402;49.012;8.370;2023-07-20T09:00:24;741.90;;;701.27;;
20486;SDS011;10402;49.012;8.370;2023-07-20T09:02:52;741.40;;;701.37;;
20486;SDS011;10402;49.012;8.370;2023-07-20T09:05:18;736.03;;;695.27;;
20486;SDS011;10402;49.012;8.370;2023-07-20T09:07:44;758.63;;;715.97;;
20486;SDS011;10402;49.012;8.370;2023-07-20T09:10:10;743.80;;;702.17;;
20486;SDS011;10402;49.012;8.370;2023-07-20T09:12:37;756.90;;;715.00;;
20486;SDS011;10402;49.012;8.370;2023-07-20T09:15:05;747.90;;;706.73;;
20486;SDS011;10402;49.012;8.370;2023-07-20T09:17:31;751.77;;;710.33;;
20486;SDS011;10402;49.012;8.370;2023-07-20T09:19:57;769.23;;;726.20;;
20486;SDS011;10402;49.012;8.370;2023-07-20T09:22:29;755.00;;;713.57;;
20486;SDS011;10402;49.012;8.370;2023-07-20T09:24:55;751.53;;;710.33;;
20486;SDS011;10402;49.012;8.370;2023-07-20T09:27:21;756.47;;;714.90;;
20486;SDS011;10402;49.012;8.370;2023-07-20T09:29:52;763.03;;;721.00;;
20486;SDS011;10402;49.012;8.370;2023-07-20T09:32:18;750.67;;;709.57;;
20486;SDS011;10402;49.012;8.370;2023-07-20T09:34:46;751.60;;;710.13;;
20486;SDS011;10402;49.012;8.370;2023-07-20T09:37:12;758.20;;;716.30;;
20486;SDS011;10402;49.012;8.370;2023-07-20T09:39:46;733.10;;;693.00;;
20486;SDS011;10402;49.012;8.370;2023-07-20T09:42:13;755.37;;;713.53;;
20486;SDS011;10402;49.012;8.370;2023-07-20T09:44:39;775.93;;;731.50;;
20486;SDS011;10402;49.012;8.370;2023-07-20T09:47:05;764.70;;;721.50;;
20486;SDS011;10402;49.012;8.370;2023-07-20T09:49:31;794.87;;;749.27;;
20486;SDS011;10402;49.012;8.370;2023-07-20T09:51:57;784.40;;;740.00;;
20486;SDS011;10402;49.012;8.370;2023-07-20T09:54:25;782.73;;;738.53;;
20486;SDS011;10402;49.012;8.370;2023-07-20T09:56:53;794.83;;;748.67;;
20486;SDS011;10402;49.012;8.370;2023-07-20T09:59:20;783.97;;;738.40;;
20486;SDS011;10402;49.012;8.370;2023-07-20T10:01:45;795.10;;;749.03;;
20486;SDS011;10402;49.012;8.370;2023-07-20T10:04:12;785.37;;;740.20;;
20486;SDS011;10402;49.012;8.370;2023-07-20T10:06:42;802.87;;;755.77;;
20486;SDS011;10402;49.012;8.370;2023-07-20T10:09:08;808.40;;;761.13;;
20486;SDS011;10402;49.012;8.370;2023-07-20T10:11:36;810.10;;;763.00;;
20486;SDS011;10402;49.012;8.370;2023-07-20T10:14:08;788.10;;;743.00;;
20486;SDS011;10402;49.012;8.370;2023-07-20T10:16:39;841.07;;;791.90;;
20486;SDS011;10402;49.012;8.370;2023-07-20T10:19:26;801.00;;;755.43;;
20486;SDS011;10402;49.012;8.370;2023-07-20T10:22:14;800.10;;;754.70;;
20486;SDS011;10402;49.012;8.370;2023-07-20T10:24:44;806.67;;;760.87;;
20486;SDS011;10402;49.012;8.370;2023-07-20T10:27:10;817.23;;;770.87;;
20486;SDS011;10402;49.012;8.370;2023-07-20T10:29:36;817.30;;;770.13;;
20486;SDS011;10402;49.012;8.370;2023-07-20T10:32:03;804.00;;;758.53;;
20486;SDS011;10402;49.012;8.370;2023-07-20T10:34:29;791.63;;;747.43;;
20486;SDS011;10402;49.012;8.370;2023-07-20T10:36:55;817.63;;;770.73;;
20486;SDS011;10402;49.012;8.370;2023-07-20T10:41:50;809.67;;;763.20;;
20486;SDS011;10402;49.012;8.370;2023-07-20T10:44:26;795.43;;;749.97;;
20486;SDS011;10402;49.012;8.370;2023-07-20T10:46:52;799.17;;;753.47;;
20486;SDS011;10402;49.012;8.370;2023-07-20T10:49:27;798.43;;;753.60;;
20486;SDS011;10402;49.012;8.370;2023-07-20T10:51:57;796.93;;;752.33;;
20486;SDS011;10402;49.012;8.370;2023-07-20T10:56:52;796.33;;;751.23;;
20486;SDS011;10402;49.012;8.370;2023-07-20T11:01:49;918.57;;;861.77;;
20486;SDS011;10402;49.012;8.370;2023-07-20T11:04:37;962.47;;;901.13;;
20486;SDS011;10402;49.012;8.370;2023-07-20T11:07:04;982.27;;;918.93;;
20486;SDS011;10402;49.012;8.370;2023-07-20T11:09:33;973.80;;;910.90;;
20486;SDS011;10402;49.012;8.370;2023-07-20T11:12:10;979.63;;;915.97;;
20486;SDS011;10402;49.012;8.370;2023-07-20T11:14:40;996.37;;;932.13;;
20486;SDS011;10402;49.012;8.370;2023-07-20T11:17:19;1004.80;;;939.57;;
20486;SDS011;10402;49.012;8.370;2023-07-20T11:19:50;971.77;;;908.53;;
20486;SDS011;10402;49.012;8.370;2023-07-20T11:22:21;985.10;;;920.90;;
20486;SDS011;10402;49.012;8.370;2023-07-20T11:24:47;977.73;;;913.70;;
20486;SDS011;10402;49.012;8.370;2023-07-20T11:27:14;988.80;;;924.47;;
20486;SDS011;10402;49.012;8.370;2023-07-20T11:29:40;991.17;;;926.03;;
20486;SDS011;10402;49.012;8.370;2023-07-20T11:32:05;983.63;;;918.80;;
20486;SDS011;10402;49.012;8.370;2023-07-20T11:34:32;960.47;;;897.57;;
20486;SDS011;10402;49.012;8.370;2023-07-20T11:36:58;968.43;;;905.30;;
20486;SDS011;10402;49.012;8.370;2023-07-20T11:39:24;1022.70;;;955.47;;
20486;SDS011;10402;49.012;8.370;2023-07-20T11:41:54;1001.03;;;935.57;;
20486;SDS011;10402;49.012;8.370;2023-07-20T11:44:21;988.33;;;923.03;;
20486;SDS011;10402;49.012;8.370;2023-07-20T11:47:13;1000.90;;;934.70;;
20486;SDS011;10402;49.012;8.370;2023-07-20T11:49:39;993.07;;;927.87;;
20486;SDS011;10402;49.012;8.370;2023-07-20T11:52:13;1001.70;;;935.60;;
20486;SDS011;10402;49.012;8.370;2023-07-20T11:54:41;991.13;;;926.20;;
20486;SDS011;10402;49.012;8.370;2023-07-20T11:57:07;999.27;;;933.30;;
20486;SDS011;10402;49.012;8.370;2023-07-20T11:59:52;994.63;;;929.17;;
20486;SDS011;10402;49.012;8.370;2023-07-20T12:02:27;965.53;;;901.60;;
20486;SDS011;10402;49.012;8.370;2023-07-20T12:04:56;1005.57;;;939.10;;
20486;SDS011;10402;49.012;8.370;2023-07-20T12:07:23;989.17;;;923.83;;
20486;SDS011;10402;49.012;8.370;2023-07-20T12:10:03;970.40;;;906.40;;
20486;SDS011;10402;49.012;8.370;2023-07-20T12:12:31;989.07;;;924.13;;
20486;SDS011;10402;49.012;8.370;2023-07-20T12:15:12;1013.43;;;946.03;;
20486;SDS011;10402;49.012;8.370;2023-07-20T12:18:00;978.50;;;913.87;;
20486;SDS011;10402;49.012;8.370;2023-07-20T12:22:51;981.00;;;916.20;;
20486;SDS011;10402;49.012;8.370;2023-07-20T12:25:17;999.37;;;933.03;;
20486;SDS011;10402;49.012;8.370;2023-07-20T12:27:46;1011.00;;;943.93;;
20486;SDS011;10402;49.012;8.370;2023-07-20T12:30:13;981.33;;;916.23;;
20486;SDS011;10402;49.012;8.370;2023-07-20T12:32:39;992.07;;;926.03;;
20486;SDS011;10402;49.012;8.370;2023-07-20T12:35:05;955.80;;;893.73;;
20486;SDS011;10402;49.012;8.370;2023-07-20T12:37:31;996.03;;;930.97;;
20486;SDS011;10402;49.012;8.370;2023-07-20T12:39:57;1022.83;;;954.50;;
20486;SDS011;10402;49.012;8.370;2023-07-20T12:42:23;973.13;;;909.23;;
20486;SDS011;10402;49.012;8.370;2023-07-20T12:44:49;980.07;;;915.77;;
20486;SDS011;10402;49.012;8.370;2023-07-20T12:47:14;997.07;;;931.10;;
20486;SDS011;10402;49.012;8.370;2023-07-20T12:49:41;1008.43;;;941.20;;
20486;SDS011;10402;49.012;8.370;2023-07-20T12:52:10;980.17;;;915.57;;
20486;SDS011;10402;49.012;8.370;2023-07-20T12:54:36;1016.50;;;949.50;;
20486;SDS011;10402;49.012;8.370;2023-07-20T12:57:01;1011.83;;;944.40;;
20486;SDS011;10402;49.012;8.370;2023-07-20T12:59:28;1015.67;;;948.30;;
20486;SDS011;10402;49.012;8.370;2023-07-20T13:01:54;1019.80;;;952.03;;
20486;SDS011;10402;49.012;8.370;2023-07-20T13:04:19;1002.23;;;935.30;;
20486;SDS011;10402;49.012;8.370;2023-07-20T13:06:45;1033.07;;;964.70;;
20486;SDS011;10402;49.012;8.370;2023-07-20T13:09:10;1022.00;;;953.90;;
20486;SDS011;10402;49.012;8.370;2023-07-20T13:11:36;997.47;;;930.73;;
20486;SDS011;10402;49.012;8.370;2023-07-20T13:14:01;1037.00;;;967.43;;
20486;SDS011;10402;49.012;8.370;2023-07-20T13:16:27;1019.57;;;951.13;;
20486;SDS011;10402;49.012;8.370;2023-07-20T13:18:52;1043.43;;;972.80;;
20486;SDS011;10402;49.012;8.370;2023-07-20T13:21:18;1027.00;;;958.13;;
20486;SDS011;10402;49.012;8.370;2023-07-20T13:23:47;1027.00;;;958.00;;
20486;SDS011;10402;49.012;8.370;2023-07-20T13:26:13;1019.47;;;951.00;;
20486;SDS011;10402;49.012;8.370;2023-07-20T13:28:39;1026.97;;;957.70;;
20486;SDS011;10402;49.012;8.370;2023-07-20T13:31:05;1031.77;;;962.73;;
20486;SDS011;10402;49.012;8.370;2023-07-20T13:33:31;1014.23;;;946.60;;
20486;SDS011;10402;49.012;8.370;2023-07-20T13:35:56;1026.67;;;957.93;;
20486;SDS011;10402;49.012;8.370;2023-07-20T13:38:22;1025.77;;;957.80;;
20486;SDS011;10402;49.012;8.370;2023-07-20T13:40:47;1016.40;;;948.97;;
20486;SDS011;10402;49.012;8.370;2023-07-20T13:43:13;1028.83;;;960.37;;
20486;SDS011;10402;49.012;8.370;2023-07-20T13:45:38;1032.90;;;964.70;;
20486;SDS011;10402;49.012;8.370;2023-07-20T13:48:04;1028.40;;;960.07;;
20486;SDS011;10402;49.012;8.370;2023-07-20T13:50:29;1035.93;;;966.20;;
20486;SDS011;10402;49.012;8.370;2023-07-20T13:52:55;1041.90;;;973.20;;
20486;SDS011;10402;49.012;8.370;2023-07-20T13:55:20;1018.73;;;951.60;;
20486;SDS011;10402;49.012;8.370;2023-07-20T13:57:46;1012.23;;;945.43;;
20486;SDS011;10402;49.012;8.370;2023-07-20T14:00:12;1024.93;;;957.17;;
20486;SDS011;10402;49.012;8.370;2023-07-20T14:02:38;1022.93;;;955.10;;
20486;SDS011;10402;49.012;8.370;2023-07-20T14:05:04;1020.67;;;953.47;;
20486;SDS011;10402;49.012;8.370;2023-07-20T14:07:30;1037.03;;;967.73;;
20486;SDS011;10402;49.012;8.370;2023-07-20T14:09:55;1022.90;;;955.13;;
20486;SDS011;10402;49.012;8.370;2023-07-20T14:12:21;1021.00;;;953.37;;
20486;SDS011;10402;49.012;8.370;2023-07-20T14:14:46;1022.67;;;954.17;;
20486;SDS011;10402;49.012;8.370;2023-07-20T14:17:12;1046.87;;;976.40;;